Time;durP1;ratioP1;P1;durP2;ratioP2;P2;SDS_P1;SDS_P2;PMS_P1;PMS_P2;Temp;Humidity;BMP_temperature;BMP_pressure;BME280_temperature;BME280_humidity;BME280_pressure;Samples;Min_cycle;Max_cycle;Signal;HPM_P1;HPM_P2
2024/03/12 00:00:53;;;;;;;;;41.50;33.50;;;;;13.67;100.00;100817.09;2094585;28;46939;-58
2024/03/12 00:01:55;;;;;;;;;42.00;34.75;;;;;13.70;100.00;100818.78;2094310;28;46304;-60
2024/03/12 00:02:56;;;;;;;;;35.60;30.00;;;;;13.42;100.00;100829.47;2091694;28;46407;-59
2024/03/12 00:03:56;;;;;;;;;40.75;35.25;;;;;13.62;100.00;100829.72;2092349;28;46120;-59
2024/03/12 00:04:57;;;;;;;;;37.00;33.50;;;;;13.72;100.00;100825.81;2090646;28;46661;-60
2024/03/12 00:05:59;;;;;;;;;44.00;36.20;;;;;13.68;100.00;100831.28;2092472;28;46655;-58
2024/03/12 00:07:01;;;;;;;;;41.00;32.20;;;;;13.71;100.00;100828.50;2096199;28;45471;-59
2024/03/12 00:08:01;;;;;;;;;40.40;35.20;;;;;13.72;100.00;100827.59;2095745;28;46771;-59
2024/03/12 00:09:06;;;;;;;;;44.75;37.50;;;;;13.69;100.00;100827.69;2091828;28;46303;-59
2024/03/12 00:10:09;;;;;;;;;43.20;34.20;;;;;13.63;100.00;100835.91;2096137;28;47078;-59
2024/03/12 00:11:09;;;;;;;;;44.80;34.20;;;;;13.64;100.00;100840.31;2096179;28;46860;-59
2024/03/12 00:12:10;;;;;;;;;41.50;35.25;;;;;13.40;100.00;100845.50;2098016;28;46185;-57
2024/03/12 00:13:10;;;;;;;;;37.75;33.75;;;;;13.40;100.00;100853.50;2097536;28;46223;-59
2024/03/12 00:14:10;;;;;;;;;38.75;34.75;;;;;13.41;100.00;100843.72;2097769;28;46854;-61
2024/03/12 00:15:11;;;;;;;;;40.00;34.75;;;;;13.58;100.00;100851.16;2097164;28;46630;-61
2024/03/12 00:16:11;;;;;;;;;45.75;36.00;;;;;13.76;100.00;100851.47;2097403;28;45969;-60
2024/03/12 00:17:14;;;;;;;;;38.75;33.50;;;;;13.74;100.00;100849.78;2093850;28;46212;-61
2024/03/12 00:18:14;;;;;;;;;40.40;35.40;;;;;13.39;100.00;100856.22;2097466;28;46448;-61
2024/03/12 00:19:17;;;;;;;;;41.00;34.75;;;;;13.57;100.00;100857.41;2097639;28;46796;-61
2024/03/12 00:20:17;;;;;;;;;44.40;35.60;;;;;13.57;100.00;100850.28;2088537;28;46633;-61
2024/03/12 00:21:18;;;;;;;;;36.00;32.50;;;;;13.32;100.00;100857.31;2086600;28;46196;-59
2024/03/12 00:22:18;;;;;;;;;37.50;32.25;;;;;13.74;100.00;100855.09;2085077;28;46829;-59
2024/03/12 00:23:20;;;;;;;;;42.75;34.25;;;;;13.78;100.00;100859.41;2087554;28;46626;-60
2024/03/12 00:24:20;;;;;;;;;37.60;33.40;;;;;13.44;100.00;100857.81;2096004;28;46015;-62
2024/03/12 00:25:21;;;;;;;;;42.00;35.75;;;;;13.50;100.00;100859.44;2097874;28;46320;-60
2024/03/12 00:26:21;;;;;;;;;44.75;37.00;;;;;13.63;100.00;100860.78;2089426;28;47102;-60
2024/03/12 00:27:22;;;;;;;;;44.00;35.75;;;;;13.64;100.00;100859.00;2093836;28;46580;-60
2024/03/12 00:28:23;;;;;;;;;40.75;35.50;;;;;13.63;100.00;100866.13;2097568;28;45766;-60
2024/03/12 00:29:23;;;;;;;;;44.40;36.00;;;;;13.58;100.00;100861.84;2097091;28;46176;-61
2024/03/12 00:30:25;;;;;;;;;39.50;34.75;;;;;13.59;100.00;100863.56;2097278;28;46178;-60
2024/03/12 00:31:25;;;;;;;;;43.80;35.80;;;;;13.68;100.00;100864.16;2096847;28;46689;-60
2024/03/12 00:32:25;;;;;;;;;42.00;36.25;;;;;13.71;100.00;100863.19;2097836;28;46841;-57
2024/03/12 00:33:26;;;;;;;;;42.25;36.00;;;;;13.73;100.00;100864.03;2097567;28;46274;-58
2024/03/12 00:34:26;;;;;;;;;36.50;31.75;;;;;13.71;100.00;100861.38;2088276;28;46157;-58
2024/03/12 00:35:32;;;;;;;;;36.50;33.75;;;;;13.64;100.00;100861.66;2080068;28;46743;-58
2024/03/12 00:36:35;;;;;;;;;35.60;31.20;;;;;13.53;100.00;100868.19;2089166;28;46412;-60
2024/03/12 00:37:35;;;;;;;;;40.00;33.75;;;;;13.52;100.00;100865.56;2097159;28;46308;-59
2024/03/12 00:38:37;;;;;;;;;37.25;33.75;;;;;13.52;100.00;100868.25;2096057;28;46257;-57
2024/03/12 00:39:37;;;;;;;;;38.80;34.80;;;;;13.56;100.00;100872.56;2085896;28;46566;-59
2024/03/12 00:40:38;;;;;;;;;39.25;32.50;;;;;13.53;100.00;100881.53;2085835;28;46113;-57
2024/03/12 00:41:38;;;;;;;;;38.80;34.60;;;;;13.68;100.00;100874.81;2093892;28;47240;-58
2024/03/12 00:42:43;;;;;;;;;36.00;31.00;;;;;13.72;100.00;100887.16;2097182;28;46443;-58
2024/03/12 00:43:43;;;;;;;;;37.60;33.40;;;;;13.70;100.00;100883.66;2072447;28;46943;-59
2024/03/12 00:44:47;;;;;;;;;38.25;34.75;;;;;13.69;100.00;100886.38;2074332;28;47072;-57
2024/03/12 00:45:48;;;;;;;;;40.80;34.60;;;;;13.69;100.00;100892.56;2097462;28;45336;-59
2024/03/12 00:46:50;;;;;;;;;35.20;31.00;;;;;13.66;100.00;100895.34;2097028;28;46344;-59
2024/03/12 00:47:52;;;;;;;;;39.20;34.00;;;;;13.67;100.00;100896.22;2096913;28;46561;-58
2024/03/12 00:48:53;;;;;;;;;40.40;34.80;;;;;13.66;100.00;100891.81;2095841;28;45965;-58
2024/03/12 00:49:53;;;;;;;;;40.50;35.50;;;;;13.62;100.00;100899.03;2096798;28;46637;-59
2024/03/12 00:50:55;;;;;;;;;40.25;35.50;;;;;13.67;100.00;100896.22;2097297;28;46614;-59
2024/03/12 00:51:56;;;;;;;;;40.80;35.00;;;;;13.72;100.00;100894.25;2097225;28;46313;-59
2024/03/12 00:52:56;;;;;;;;;39.80;33.00;;;;;13.82;100.00;100895.72;2097146;28;46534;-59
2024/03/12 00:53:58;;;;;;;;;41.75;34.50;;;;;13.87;100.00;100903.59;2096817;28;46851;-59
2024/03/12 00:54:58;;;;;;;;;33.80;32.00;;;;;13.86;100.00;100909.84;2097206;28;45182;-59
2024/03/12 00:55:58;;;;;;;;;35.50;31.75;;;;;13.84;100.00;100904.53;2097019;28;46205;-59
2024/03/12 00:56:59;;;;;;;;;35.75;32.25;;;;;13.81;100.00;100905.53;2083252;28;46355;-59
2024/03/12 00:58:00;;;;;;;;;36.50;32.75;;;;;13.80;100.00;100909.13;2088154;28;46296;-60
2024/03/12 00:59:01;;;;;;;;;32.80;30.20;;;;;13.74;100.00;100912.00;2096043;28;46901;-58
2024/03/12 01:00:03;;;;;;;;;34.20;28.80;;;;;13.78;100.00;100913.63;2097264;28;47034;-58
2024/03/12 01:01:03;;;;;;;;;30.80;29.20;;;;;13.75;100.00;100911.06;2097268;28;46632;-58
2024/03/12 01:02:04;;;;;;;;;34.00;30.00;;;;;13.74;100.00;100916.44;2097489;28;45520;-57
2024/03/12 01:03:08;;;;;;;;;37.25;32.00;;;;;13.75;100.00;100915.53;2091860;28;46701;-59
2024/03/12 01:04:08;;;;;;;;;33.20;30.00;;;;;13.66;100.00;100916.69;2096806;28;46667;-58
2024/03/12 01:05:10;;;;;;;;;38.75;33.00;;;;;13.80;100.00;100913.56;2093107;28;46116;-58
2024/03/12 01:06:11;;;;;;;;;39.40;32.80;;;;;13.72;100.00;100913.84;2094809;28;46852;-58
2024/03/12 01:07:12;;;;;;;;;32.20;29.40;;;;;13.75;100.00;100910.19;2096657;28;46622;-58
2024/03/12 01:08:12;;;;;;;;;29.75;29.00;;;;;13.77;100.00;100911.00;2097123;28;46920;-59
2024/03/12 01:09:13;;;;;;;;;32.50;29.50;;;;;13.66;100.00;100927.34;2092538;28;46093;-58
2024/03/12 01:10:14;;;;;;;;;33.25;30.75;;;;;13.65;100.00;100922.06;2094370;28;46404;-59
2024/03/12 01:11:15;;;;;;;;;34.20;30.40;;;;;13.67;100.00;100922.88;2096813;28;46450;-60
2024/03/12 01:12:15;;;;;;;;;40.75;32.25;;;;;13.68;100.00;100917.50;2097462;28;46800;-60
2024/03/12 01:13:16;;;;;;;;;30.50;29.75;;;;;13.69;100.00;100918.38;2097456;28;46188;-59
2024/03/12 01:14:17;;;;;;;;;37.50;32.00;;;;;13.67;100.00;100921.09;2096702;28;45860;-59
2024/03/12 01:15:18;;;;;;;;;37.00;32.80;;;;;13.61;100.00;100915.97;2096395;28;46820;-60
2024/03/12 01:16:19;;;;;;;;;34.80;32.40;;;;;13.60;100.00;100916.00;2078901;28;46921;-60
2024/03/12 01:17:20;;;;;;;;;35.50;31.25;;;;;13.47;100.00;100915.50;2076580;28;46642;-57
2024/03/12 01:18:21;;;;;;;;;35.60;32.20;;;;;13.68;100.00;100916.63;2097518;28;47323;-60
2024/03/12 01:19:21;;;;;;;;;35.75;33.00;;;;;13.68;100.00;100905.97;2097333;28;46214;-59
2024/03/12 01:20:26;;;;;;;;;31.75;27.25;;;;;13.68;100.00;100903.28;2095693;28;47043;-59
2024/03/12 01:21:27;;;;;;;;;34.00;31.20;;;;;13.68;100.00;100909.50;2093694;28;46625;-59
2024/03/12 01:22:27;;;;;;;;;27.25;26.25;;;;;13.69;100.00;100902.38;2094957;28;47062;-59
2024/03/12 01:23:27;;;;;;;;;33.00;29.00;;;;;13.69;100.00;100913.91;2096520;28;46760;-60
2024/03/12 01:24:27;;;;;;;;;30.00;28.00;;;;;13.70;100.00;100912.97;2097488;28;46826;-59
2024/03/12 01:25:29;;;;;;;;;32.75;27.75;;;;;13.69;100.00;100915.72;2096614;28;46194;-59
2024/03/12 01:26:30;;;;;;;;;28.80;28.80;;;;;13.78;100.00;100908.28;2096166;28;46797;-58
2024/03/12 01:27:33;;;;;;;;;21.60;18.80;;;;;13.74;100.00;100913.78;2096850;28;45692;-59
2024/03/12 01:28:34;;;;;;;;;30.20;29.80;;;;;13.72;100.00;100913.84;2096454;28;45923;-60
2024/03/12 01:29:35;;;;;;;;;29.20;28.60;;;;;13.72;100.00;100910.28;2096793;28;46547;-59
2024/03/12 01:30:36;;;;;;;;;28.25;26.00;;;;;13.73;100.00;100914.72;2096618;28;46295;-59
2024/03/12 01:31:36;;;;;;;;;25.20;20.20;;;;;13.78;100.00;100913.63;2093741;28;47155;-60
2024/03/12 01:32:38;;;;;;;;;29.75;28.00;;;;;13.73;100.00;100914.72;2096997;28;46165;-59
2024/03/12 01:33:39;;;;;;;;;30.00;28.40;;;;;13.71;100.00;100912.06;2096836;28;46499;-60
2024/03/12 01:34:42;;;;;;;;;31.80;29.00;;;;;13.71;100.00;100916.53;2096832;28;46827;-60
2024/03/12 01:35:46;;;;;;;;;30.80;26.60;;;;;13.70;100.00;100915.66;2091601;28;45783;-59
2024/03/12 01:36:47;;;;;;;;;31.00;29.00;;;;;13.69;100.00;100913.91;2092977;28;46713;-60
2024/03/12 01:37:51;;;;;;;;;33.75;28.75;;;;;13.64;100.00;100907.00;2095828;28;46233;-60
2024/03/12 01:38:54;;;;;;;;;29.40;26.00;;;;;13.62;100.00;100909.72;2096810;28;46618;-58
2024/03/12 01:39:54;;;;;;;;;26.20;23.00;;;;;13.65;100.00;100912.28;2096964;28;46675;-59
2024/03/12 01:40:55;;;;;;;;;29.00;27.25;;;;;13.67;100.00;100909.56;2096880;28;46180;-60
2024/03/12 01:41:55;;;;;;;;;28.50;28.25;;;;;13.76;100.00;100909.28;2096450;28;46304;-59
2024/03/12 01:43:03;;;;;;;;;29.25;26.50;;;;;13.78;100.00;100916.28;2096693;28;47009;-59
2024/03/12 01:44:06;;;;;;;;;26.80;23.20;;;;;13.82;100.00;100923.28;2070814;28;46910;-59
2024/03/12 01:45:06;;;;;;;;;23.00;23.00;;;;;13.81;100.00;100912.66;2065823;28;45408;-60
2024/03/12 01:46:09;;;;;;;;;30.50;25.75;;;;;13.90;100.00;100911.50;2087526;28;47656;-59
2024/03/12 01:47:10;;;;;;;;;26.60;24.40;;;;;13.83;100.00;100913.47;2096345;28;46406;-60
2024/03/12 01:48:11;;;;;;;;;25.00;25.00;;;;;13.82;100.00;100909.94;2095823;28;46379;-58
2024/03/12 01:49:13;;;;;;;;;29.00;25.75;;;;;13.83;100.00;100919.69;2090688;28;46429;-59
2024/03/12 01:50:15;;;;;;;;;24.40;22.60;;;;;13.81;100.00;100918.84;2096652;28;46807;-60
2024/03/12 01:51:16;;;;;;;;;22.40;22.20;;;;;13.82;100.00;100920.59;2096223;28;46839;-60
2024/03/12 01:52:22;;;;;;;;;22.40;20.20;;;;;13.83;100.00;100922.34;2089149;28;46493;-60
2024/03/12 01:53:23;;;;;;;;;21.40;20.20;;;;;13.87;100.00;100917.81;2096888;28;46311;-60
2024/03/12 01:54:23;;;;;;;;;20.00;18.25;;;;;13.83;100.00;100916.13;2097173;28;46405;-57
2024/03/12 01:55:23;;;;;;;;;24.00;20.00;;;;;13.81;100.00;100916.19;2097086;28;46357;-58
2024/03/12 01:56:26;;;;;;;;;17.25;16.75;;;;;13.80;100.00;100914.44;2096750;28;46410;-60
2024/03/12 01:57:27;;;;;;;;;22.40;20.20;;;;;13.79;100.00;100910.03;2097032;28;46864;-60
2024/03/12 01:58:27;;;;;;;;;23.25;22.25;;;;;13.79;100.00;100915.38;2096846;28;46331;-59
2024/03/12 01:59:27;;;;;;;;;22.50;22.00;;;;;13.78;100.00;100913.63;2070282;28;47079;-59
2024/03/12 02:00:29;;;;;;;;;23.25;21.50;;;;;13.78;100.00;100908.28;2063460;28;46298;-60
2024/03/12 02:01:29;;;;;;;;;25.40;23.60;;;;;13.78;100.00;100907.41;2095943;28;47140;-59
2024/03/12 02:02:29;;;;;;;;;21.00;19.75;;;;;13.79;100.00;100912.69;2061861;28;46484;-56
2024/03/12 02:03:33;;;;;;;;;24.75;22.00;;;;;13.78;100.00;100913.63;2062427;28;46682;-58
2024/03/12 02:04:34;;;;;;;;;22.20;21.00;;;;;13.78;100.00;100910.97;2094528;28;46685;-60
2024/03/12 02:05:34;;;;;;;;;26.75;24.75;;;;;13.77;100.00;100908.34;2096557;28;46107;-59
2024/03/12 02:06:34;;;;;;;;;21.75;19.50;;;;;13.79;100.00;100911.84;2097021;28;46685;-58
2024/03/12 02:07:35;;;;;;;;;18.75;16.25;;;;;13.78;100.00;100918.09;2096339;28;46444;-58
2024/03/12 02:08:35;;;;;;;;;19.00;17.25;;;;;13.79;100.00;100911.84;2092331;28;46717;-57
2024/03/12 02:09:36;;;;;;;;;23.50;22.00;;;;;13.77;100.00;100909.22;2096116;28;46484;-58
2024/03/12 02:10:36;;;;;;;;;22.25;22.00;;;;;13.79;100.00;100919.84;2094908;28;46685;-58
2024/03/12 02:11:36;;;;;;;;;24.25;20.00;;;;;13.87;100.00;100914.28;2096952;28;46342;-57
2024/03/12 02:12:37;;;;;;;;;19.75;19.75;;;;;13.89;100.00;100912.41;2096801;28;46669;-59
2024/03/12 02:13:38;;;;;;;;;21.75;20.00;;;;;13.79;100.00;100904.69;2096864;28;46459;-58
2024/03/12 02:14:38;;;;;;;;;21.00;20.00;;;;;13.78;100.00;100912.75;2097015;28;46693;-57
2024/03/12 02:15:38;;;;;;;;;20.75;20.00;;;;;13.77;100.00;100905.69;2097234;28;46633;-60
2024/03/12 02:16:39;;;;;;;;;23.50;20.50;;;;;13.77;100.00;100916.34;2093910;28;46705;-59
2024/03/12 02:17:40;;;;;;;;;25.75;23.00;;;;;13.77;100.00;100911.88;2095507;28;46458;-59
2024/03/12 02:18:41;;;;;;;;;24.80;22.20;;;;;13.78;100.00;100904.75;2095952;28;46087;-58
2024/03/12 02:19:41;;;;;;;;;16.75;16.50;;;;;13.78;100.00;100908.28;2096438;28;46347;-59
2024/03/12 02:20:41;;;;;;;;;20.25;18.50;;;;;13.89;100.00;100912.41;2096296;28;46043;-59
2024/03/12 02:21:42;;;;;;;;;20.00;19.25;;;;;13.89;100.00;100907.94;2096554;28;46391;-60
2024/03/12 02:22:43;;;;;;;;;19.25;19.00;;;;;13.89;100.00;100910.63;2096465;28;46668;-58
2024/03/12 02:23:44;;;;;;;;;18.00;15.20;;;;;13.91;100.00;100913.25;2096427;28;46834;-59
2024/03/12 02:24:46;;;;;;;;;18.50;18.50;;;;;13.90;100.00;100911.50;2097040;28;46799;-58
2024/03/12 02:25:47;;;;;;;;;20.20;19.00;;;;;13.92;100.00;100915.84;2078451;28;45698;-60
2024/03/12 02:26:47;;;;;;;;;21.00;20.25;;;;;13.89;100.00;100913.28;2077218;28;46458;-58
2024/03/12 02:27:48;;;;;;;;;21.00;17.00;;;;;13.93;100.00;100917.59;2068595;28;45589;-59
2024/03/12 02:28:48;;;;;;;;;16.00;14.75;;;;;13.91;100.00;100919.44;2071051;28;46383;-60
2024/03/12 02:29:48;;;;;;;;;22.75;18.25;;;;;13.91;100.00;100906.09;2093700;28;46382;-60
2024/03/12 02:30:48;;;;;;;;;26.25;22.50;;;;;13.90;100.00;100912.38;2096603;28;46343;-58
2024/03/12 02:31:49;;;;;;;;;14.50;14.50;;;;;13.91;100.00;100914.09;2096326;28;46206;-58
2024/03/12 02:32:49;;;;;;;;;19.00;18.00;;;;;13.89;100.00;100913.28;2096719;28;45965;-60
2024/03/12 02:33:50;;;;;;;;;19.50;19.50;;;;;13.89;100.00;100915.09;2096669;28;45825;-58
2024/03/12 02:34:51;;;;;;;;;20.50;19.00;;;;;13.89;100.00;100917.75;2096289;28;48269;-59
2024/03/12 02:35:54;;;;;;;;;21.40;19.00;;;;;13.94;100.00;100924.69;2095527;28;46746;-59
2024/03/12 02:36:54;;;;;;;;;18.80;17.20;;;;;13.96;100.00;100925.50;2096093;28;46725;-59
2024/03/12 02:37:55;;;;;;;;;20.75;18.00;;;;;13.96;100.00;100916.63;2096367;28;46928;-59
2024/03/12 02:38:55;;;;;;;;;15.75;13.75;;;;;13.97;100.00;100926.38;2096522;28;46317;-60
2024/03/12 02:39:56;;;;;;;;;18.25;18.25;;;;;13.91;100.00;100915.91;2096578;28;46506;-60
2024/03/12 02:40:56;;;;;;;;;27.50;23.75;;;;;13.95;100.00;100923.75;2096652;28;46415;-59
2024/03/12 02:42:00;;;;;;;;;18.50;18.00;;;;;13.91;100.00;100919.44;2068911;28;46335;-58
2024/03/12 02:43:00;;;;;;;;;24.20;22.60;;;;;13.90;100.00;100923.03;2072065;28;45607;-60
2024/03/12 02:44:01;;;;;;;;;22.50;18.75;;;;;13.91;100.00;100929.25;2096760;28;46469;-60
2024/03/12 02:45:01;;;;;;;;;21.00;18.25;;;;;13.91;100.00;100923.91;2096295;28;46263;-60
2024/03/12 02:46:03;;;;;;;;;20.00;18.25;;;;;13.89;100.00;100923.09;2098292;28;46280;-60
2024/03/12 02:47:04;;;;;;;;;21.80;19.80;;;;;13.89;100.00;100925.75;2096115;28;46856;-60
2024/03/12 02:48:05;;;;;;;;;27.20;26.60;;;;;13.89;100.00;100917.75;2095001;28;46285;-60
2024/03/12 02:49:07;;;;;;;;;25.20;23.00;;;;;13.88;100.00;100921.34;2096419;28;46520;-60
2024/03/12 02:50:08;;;;;;;;;25.40;21.80;;;;;13.89;100.00;100923.09;2096454;28;46884;-60
2024/03/12 02:51:09;;;;;;;;;25.80;23.40;;;;;13.89;100.00;100929.28;2078110;28;46578;-61
2024/03/12 02:52:11;;;;;;;;;23.25;23.25;;;;;13.89;100.00;100923.97;2078653;28;46194;-61
2024/03/12 02:53:11;;;;;;;;;22.60;19.20;;;;;13.89;100.00;100921.28;2096355;28;45943;-59
2024/03/12 02:54:16;;;;;;;;;23.75;18.25;;;;;13.91;100.00;100915.91;2096050;28;46637;-60
2024/03/12 02:55:19;;;;;;;;;20.20;19.20;;;;;13.90;100.00;100922.16;2097128;28;46350;-60
2024/03/12 02:56:19;;;;;;;;;23.60;23.20;;;;;13.89;100.00;100921.28;2078164;28;46347;-61
2024/03/12 02:57:21;;;;;;;;;18.25;16.50;;;;;13.90;100.00;100922.16;2079598;28;46401;-59
2024/03/12 02:58:25;;;;;;;;;16.20;16.20;;;;;13.90;100.00;100922.16;2095073;28;46408;-59
2024/03/12 02:59:27;;;;;;;;;17.00;16.00;;;;;13.89;100.00;100925.75;2096230;28;46590;-60
2024/03/12 03:00:28;;;;;;;;;20.60;18.80;;;;;13.90;100.00;100928.38;2096737;28;46481;-60
2024/03/12 03:01:29;;;;;;;;;18.60;18.60;;;;;13.99;100.00;100927.22;2096261;28;46526;-59
2024/03/12 03:02:29;;;;;;;;;20.50;19.25;;;;;14.00;100.00;100928.97;2095673;28;46552;-60
2024/03/12 03:03:29;;;;;;;;;20.25;18.25;;;;;14.00;100.00;100921.81;2088218;28;46162;-58
2024/03/12 03:04:35;;;;;;;;;23.00;21.00;;;;;14.01;100.00;100923.56;2091480;28;45965;-59
2024/03/12 03:05:36;;;;;;;;;25.80;22.20;;;;;14.02;100.00;100921.78;2091530;28;45678;-60
2024/03/12 03:06:36;;;;;;;;;20.25;18.50;;;;;14.03;100.00;100926.19;2092797;28;46288;-60
2024/03/12 03:07:37;;;;;;;;;17.75;16.50;;;;;13.91;100.00;100930.13;2095926;28;46255;-60
2024/03/12 03:08:37;;;;;;;;;20.25;18.00;;;;;13.91;100.00;100931.91;2096119;28;46216;-58
2024/03/12 03:09:37;;;;;;;;;24.75;23.25;;;;;13.89;100.00;100928.44;2096818;28;46936;-60
2024/03/12 03:10:38;;;;;;;;;17.75;16.00;;;;;13.89;100.00;100931.09;2096303;28;46618;-61
2024/03/12 03:11:38;;;;;;;;;21.00;19.50;;;;;13.90;100.00;100932.84;2095935;28;46659;-60
2024/03/12 03:12:39;;;;;;;;;18.00;18.00;;;;;13.93;100.00;100930.06;2096202;28;46318;-58
2024/03/12 03:13:39;;;;;;;;;18.25;17.25;;;;;13.91;100.00;100937.25;2096082;28;46440;-59
2024/03/12 03:14:40;;;;;;;;;21.00;19.00;;;;;14.03;100.00;100940.41;2094761;28;46302;-60
2024/03/12 03:15:40;;;;;;;;;17.00;15.75;;;;;13.97;100.00;100937.91;2095977;28;46189;-59
2024/03/12 03:16:40;;;;;;;;;18.75;16.50;;;;;13.97;100.00;100945.91;2094796;28;46423;-61
2024/03/12 03:17:42;;;;;;;;;16.50;16.50;;;;;13.97;100.00;100942.38;2095481;28;46265;-61
2024/03/12 03:18:43;;;;;;;;;16.50;16.00;;;;;13.99;100.00;100937.88;2097223;28;46469;-59
2024/03/12 03:19:43;;;;;;;;;17.00;16.50;;;;;13.92;100.00;100939.00;2096680;28;46672;-59
2024/03/12 03:20:44;;;;;;;;;20.25;16.50;;;;;13.91;100.00;100942.59;2096382;28;46211;-60
2024/03/12 03:21:44;;;;;;;;;18.00;16.00;;;;;13.91;100.00;100934.59;2096289;28;46295;-58
2024/03/12 03:22:44;;;;;;;;;18.50;17.25;;;;;13.91;100.00;100927.44;2096257;28;46803;-60
2024/03/12 03:23:45;;;;;;;;;18.50;16.75;;;;;13.90;100.00;100931.03;2096371;28;46263;-61
2024/03/12 03:24:45;;;;;;;;;18.33;15.00;;;;;13.89;100.00;100936.44;2094253;28;46557;-60
2024/03/12 03:25:46;;;;;;;;;18.50;16.25;;;;;13.87;100.00;100936.47;2096200;28;47476;-60
2024/03/12 03:26:47;;;;;;;;;16.00;15.25;;;;;13.86;100.00;100932.06;2095795;28;46329;-60
2024/03/12 03:27:47;;;;;;;;;16.67;15.00;;;;;13.84;100.00;100932.09;2095968;28;46867;-61
2024/03/12 03:28:48;;;;;;;;;20.75;18.00;;;;;13.84;100.00;100932.09;2095809;28;46068;-58
2024/03/12 03:29:48;;;;;;;;;15.40;14.60;;;;;13.83;100.00;100938.34;2094336;28;46143;-60
2024/03/12 03:30:49;;;;;;;;;18.33;16.00;;;;;13.93;100.00;100936.28;2091231;28;46412;-59
2024/03/12 03:31:50;;;;;;;;;16.75;14.75;;;;;13.84;100.00;100937.44;2087258;28;46339;-60
2024/03/12 03:32:50;;;;;;;;;18.33;16.00;;;;;13.90;100.00;100935.50;2093529;28;46293;-59
2024/03/12 03:33:50;;;;;;;;;18.00;15.33;;;;;13.83;100.00;100941.00;2102419;27;46330;-58
2024/03/12 03:34:52;;;;;;;;;17.25;15.50;;;;;13.81;100.00;100940.19;2100723;28;46301;-59
2024/03/12 03:35:53;;;;;;;;;22.00;18.60;;;;;13.82;100.00;100944.59;2096260;28;46722;-58
2024/03/12 03:36:56;;;;;;;;;18.00;16.25;;;;;13.82;100.00;100939.28;2095956;28;46421;-59
2024/03/12 03:37:59;;;;;;;;;16.00;15.20;;;;;13.82;100.00;100944.59;2096111;28;46516;-59
2024/03/12 03:39:00;;;;;;;;;18.40;14.40;;;;;13.80;100.00;100943.78;2096186;28;47113;-58
2024/03/12 03:40:04;;;;;;;;;15.00;14.00;;;;;13.81;100.00;100939.31;2096257;28;46626;-58
2024/03/12 03:41:04;;;;;;;;;15.00;14.20;;;;;13.81;100.00;100950.00;2095836;28;46801;-60
2024/03/12 03:42:06;;;;;;;;;15.75;15.75;;;;;13.79;100.00;100944.72;2096462;28;46711;-59
2024/03/12 03:43:07;;;;;;;;;16.60;15.00;;;;;13.80;100.00;100942.91;2095366;28;46411;-57
2024/03/12 03:44:07;;;;;;;;;15.67;14.67;;;;;13.79;100.00;100944.72;2093849;28;46526;-58
2024/03/12 03:45:08;;;;;;;;;15.00;13.00;;;;;13.78;100.00;100945.63;2095338;28;46625;-59
2024/03/12 03:46:08;;;;;;;;;16.33;15.00;;;;;13.86;100.00;100947.22;2096615;28;46232;-58
2024/03/12 03:47:08;;;;;;;;;16.50;16.00;;;;;13.90;100.00;100947.03;2097287;28;46447;-57
2024/03/12 03:48:09;;;;;;;;;15.33;14.33;;;;;13.87;100.00;100949.81;2096348;28;46294;-59
2024/03/12 03:49:10;;;;;;;;;17.67;17.67;;;;;13.80;100.00;100937.59;2098092;28;46501;-58
2024/03/12 03:50:11;;;;;;;;;19.00;16.50;;;;;13.79;100.00;100942.03;2097448;28;46487;-60
2024/03/12 03:51:11;;;;;;;;;17.67;14.33;;;;;13.77;100.00;100948.34;2094867;28;46661;-60
2024/03/12 03:52:11;;;;;;;;;15.00;13.33;;;;;13.76;100.00;100950.16;2084377;28;46312;-60
2024/03/12 03:53:12;;;;;;;;;13.33;13.33;;;;;13.78;100.00;100950.09;2083379;28;46714;-61
2024/03/12 03:54:12;;;;;;;;;14.75;14.75;;;;;13.78;100.00;100945.63;2087341;28;46670;-59
2024/03/12 03:55:14;;;;;;;;;14.33;14.33;;;;;13.78;100.00;100942.97;2088880;28;46539;-59
2024/03/12 03:56:15;;;;;;;;;12.25;12.00;;;;;13.77;100.00;100945.69;2087915;28;46903;-59
2024/03/12 03:57:15;;;;;;;;;14.00;12.50;;;;;13.79;100.00;100944.72;2079781;28;46226;-58
2024/03/12 03:58:18;;;;;;;;;13.67;12.33;;;;;13.81;100.00;100945.53;2080016;28;46406;-59
2024/03/12 03:59:19;;;;;;;;;17.00;15.25;;;;;13.76;100.00;100943.94;2088001;28;46891;-59
2024/03/12 04:00:23;;;;;;;;;15.50;15.00;;;;;13.75;100.00;100950.19;2088125;28;46856;-58
2024/03/12 04:01:24;;;;;;;;;21.40;16.00;;;;;13.75;100.00;100947.53;2088197;28;46446;-60
2024/03/12 04:02:24;;;;;;;;;16.40;14.20;;;;;13.83;100.00;100945.47;2088125;28;46825;-59
2024/03/12 04:03:25;;;;;;;;;18.67;15.00;;;;;13.75;100.00;100950.19;2088694;28;46764;-59
2024/03/12 04:04:25;;;;;;;;;17.00;17.00;;;;;13.74;100.00;100954.66;2087764;28;46627;-59
2024/03/12 04:05:25;;;;;;;;;15.00;14.75;;;;;13.73;100.00;100958.25;2088287;28;46463;-62
2024/03/12 04:06:27;;;;;;;;;14.50;13.75;;;;;13.73;100.00;100950.25;2088218;28;46821;-58
2024/03/12 04:07:28;;;;;;;;;12.33;11.33;;;;;13.71;100.00;100952.06;2088246;28;46889;-58
2024/03/12 04:08:30;;;;;;;;;17.00;15.50;;;;;13.59;100.00;100952.44;2088370;28;46743;-58
2024/03/12 04:09:31;;;;;;;;;13.50;12.00;;;;;13.69;100.00;100959.25;2088076;28;46352;-60
2024/03/12 04:10:31;;;;;;;;;13.33;12.33;;;;;13.66;100.00;100959.34;2086303;28;45433;-60
2024/03/12 04:11:33;;;;;;;;;14.00;14.00;;;;;13.62;100.00;100955.03;2087783;28;46340;-59
2024/03/12 04:12:33;;;;;;;;;14.75;14.00;;;;;13.55;100.00;100959.66;2087913;28;46636;-57
2024/03/12 04:13:34;;;;;;;;;11.00;10.00;;;;;13.60;100.00;100961.34;2087793;28;46338;-60
2024/03/12 04:14:34;;;;;;;;;14.00;13.00;;;;;13.68;100.00;100964.63;2087831;28;46218;-60
2024/03/12 04:15:34;;;;;;;;;11.00;11.00;;;;;13.71;100.00;100970.75;2088006;28;46644;-59
2024/03/12 04:16:35;;;;;;;;;11.67;11.33;;;;;13.75;100.00;100966.22;2087877;28;46527;-59
2024/03/12 04:17:37;;;;;;;;;14.00;13.00;;;;;13.76;100.00;100965.28;2087809;28;46603;-59
2024/03/12 04:18:38;;;;;;;;;16.50;13.50;;;;;13.78;100.00;100968.78;2087866;28;46494;-60
2024/03/12 04:19:39;;;;;;;;;14.33;13.67;;;;;13.77;100.00;100970.56;2087976;28;46281;-58
2024/03/12 04:20:39;;;;;;;;;17.25;14.25;;;;;13.73;100.00;100970.72;2087827;28;46597;-59
2024/03/12 04:21:41;;;;;;;;;14.67;14.00;;;;;13.75;100.00;100971.53;2079886;28;46252;-59
2024/03/12 04:22:45;;;;;;;;;12.00;11.00;;;;;13.73;100.00;100974.25;2079928;28;46753;-58
2024/03/12 04:23:46;;;;;;;;;14.00;12.75;;;;;13.68;100.00;100972.63;2087483;28;46671;-60
2024/03/12 04:24:46;;;;;;;;;15.80;14.80;;;;;13.62;100.00;100970.16;2087933;28;46521;-59
2024/03/12 04:25:47;;;;;;;;;11.67;11.33;;;;;13.61;100.00;100971.09;2087882;28;46906;-59
2024/03/12 04:26:47;;;;;;;;;13.67;12.67;;;;;13.60;100.00;100978.22;2087802;28;46922;-60
2024/03/12 04:27:48;;;;;;;;;14.67;14.00;;;;;13.58;100.00;100981.81;2086505;28;46815;-58
2024/03/12 04:28:48;;;;;;;;;17.33;14.33;;;;;13.55;100.00;100981.00;2085915;28;46718;-59
2024/03/12 04:29:48;;;;;;;;;15.00;12.67;;;;;13.54;100.00;100981.06;2088359;28;46679;-60
2024/03/12 04:30:49;;;;;;;;;19.25;14.00;;;;;13.53;100.00;100992.63;2096657;28;46292;-61
2024/03/12 04:31:49;;;;;;;;;14.33;13.67;;;;;13.52;100.00;100983.75;2096437;28;46361;-59
2024/03/12 04:32:50;;;;;;;;;16.00;16.00;;;;;13.52;100.00;100983.75;2097335;28;46389;-59
2024/03/12 04:33:52;;;;;;;;;13.67;13.67;;;;;13.52;100.00;100983.75;2097274;28;46828;-58
2024/03/12 04:34:53;;;;;;;;;17.60;16.20;;;;;13.54;100.00;100981.06;2097387;28;45695;-59